Terminal Aerodrome Forecast
Issued by NWS

Home | Current Version | Previous Version | Graphics & Text | Print | Product List | Glossary On
Versions: 1 2 3 4 5 6 7 8 9 10 11 12 13 14 15 16 17 18
878
FTUS43 KBIS 281726
TAFDIK
TAF
KDIK 281726Z 2818/2918 31021G32KT P6SM VCSH FEW070 SCT110
     FM282100 34018G27KT P6SM SCT100
     FM290300 35011KT P6SM SKC
     FM290600 32008KT P6SM SKC
     FM291700 32018G26KT P6SM BKN070=

USA.gov is the U.S. government's official web portal to all federal, state and local government web resources and services.